sensor_id;sensor_type;location;lat;lon;timestamp;temperature;humidity
52859;DHT22;38721;53.098;6.596;2022-09-14T00:01:00;13.30;99.90
52859;DHT22;38721;53.098;6.596;2022-09-14T00:03:25;13.30;99.90
52859;DHT22;38721;53.098;6.596;2022-09-14T00:05:51;13.30;99.90
52859;DHT22;38721;53.098;6.596;2022-09-14T00:08:19;13.30;99.90
52859;DHT22;38721;53.098;6.596;2022-09-14T00:10:45;13.10;99.90
52859;DHT22;38721;53.098;6.596;2022-09-14T00:13:15;13.20;99.90
52859;DHT22;38721;53.098;6.596;2022-09-14T00:15:44;13.10;99.90
52859;DHT22;38721;53.098;6.596;2022-09-14T00:18:10;13.10;99.90
52859;DHT22;38721;53.098;6.596;2022-09-14T00:20:36;13.10;99.90
52859;DHT22;38721;53.098;6.596;2022-09-14T00:23:03;13.10;99.90
52859;DHT22;38721;53.098;6.596;2022-09-14T00:25:30;13.10;99.90
52859;DHT22;38721;53.098;6.596;2022-09-14T00:27:57;13.10;99.90
52859;DHT22;38721;53.098;6.596;2022-09-14T00:30:23;13.00;99.90
52859;DHT22;38721;53.098;6.596;2022-09-14T00:32:50;12.90;99.90
52859;DHT22;38721;53.098;6.596;2022-09-14T00:35:16;12.80;99.90
52859;DHT22;38721;53.098;6.596;2022-09-14T00:37:42;12.90;99.90
52859;DHT22;38721;53.098;6.596;2022-09-14T00:40:10;12.90;99.90
52859;DHT22;38721;53.098;6.596;2022-09-14T00:42:37;12.80;99.90
52859;DHT22;38721;53.098;6.596;2022-09-14T00:45:13;12.80;99.90
52859;DHT22;38721;53.098;6.596;2022-09-14T00:47:39;12.80;99.90
52859;DHT22;38721;53.098;6.596;2022-09-14T00:50:06;12.90;99.90
52859;DHT22;38721;53.098;6.596;2022-09-14T00:52:35;12.90;99.90
52859;DHT22;38721;53.098;6.596;2022-09-14T00:55:08;12.90;99.90
52859;DHT22;38721;53.098;6.596;2022-09-14T00:57:47;12.70;99.90
52859;DHT22;38721;53.098;6.596;2022-09-14T01:00:16;12.80;99.90
52859;DHT22;38721;53.098;6.596;2022-09-14T01:02:43;12.70;99.90
52859;DHT22;38721;53.098;6.596;2022-09-14T01:05:09;12.60;99.90
52859;DHT22;38721;53.098;6.596;2022-09-14T01:13:23;12.70;99.90
52859;DHT22;38721;53.098;6.596;2022-09-14T01:16:06;12.60;99.90
52859;DHT22;38721;53.098;6.596;2022-09-14T01:18:45;12.50;99.90
52859;DHT22;38721;53.098;6.596;2022-09-14T01:21:24;12.40;99.90
52859;DHT22;38721;53.098;6.596;2022-09-14T01:29:44;12.40;99.90
52859;DHT22;38721;53.098;6.596;2022-09-14T01:32:16;12.40;99.90
52859;DHT22;38721;53.098;6.596;2022-09-14T01:34:57;12.30;99.90
52859;DHT22;38721;53.098;6.596;2022-09-14T01:37:29;12.20;99.90
52859;DHT22;38721;53.098;6.596;2022-09-14T01:42:51;12.10;99.90
52859;DHT22;38721;53.098;6.596;2022-09-14T01:45:19;12.10;99.90
52859;DHT22;38721;53.098;6.596;2022-09-14T01:47:57;12.10;99.90
52859;DHT22;38721;53.098;6.596;2022-09-14T01:50:31;12.10;99.90
52859;DHT22;38721;53.098;6.596;2022-09-14T01:53:14;12.10;99.90
52859;DHT22;38721;53.098;6.596;2022-09-14T01:55:48;12.10;99.90
52859;DHT22;38721;53.098;6.596;2022-09-14T01:58:27;12.10;99.90
52859;DHT22;38721;53.098;6.596;2022-09-14T02:01:00;12.10;99.90
52859;DHT22;38721;53.098;6.596;2022-09-14T02:03:37;12.10;99.90
52859;DHT22;38721;53.098;6.596;2022-09-14T02:06:22;12.20;99.90
52859;DHT22;38721;53.098;6.596;2022-09-14T02:08:50;12.20;99.90
52859;DHT22;38721;53.098;6.596;2022-09-14T02:11:16;12.30;99.90
52859;DHT22;38721;53.098;6.596;2022-09-14T02:13:41;12.30;99.90
52859;DHT22;38721;53.098;6.596;2022-09-14T02:16:07;12.40;99.90
52859;DHT22;38721;53.098;6.596;2022-09-14T02:18:33;12.40;99.90
52859;DHT22;38721;53.098;6.596;2022-09-14T02:21:03;12.60;99.90
52859;DHT22;38721;53.098;6.596;2022-09-14T02:23:29;12.60;99.90
52859;DHT22;38721;53.098;6.596;2022-09-14T02:25:55;12.60;99.90
52859;DHT22;38721;53.098;6.596;2022-09-14T02:28:22;12.60;99.90
52859;DHT22;38721;53.098;6.596;2022-09-14T02:45:00;12.80;99.90
52859;DHT22;38721;53.098;6.596;2022-09-14T02:47:54;12.80;99.90
52859;DHT22;38721;53.098;6.596;2022-09-14T02:50:28;12.80;99.90
52859;DHT22;38721;53.098;6.596;2022-09-14T02:53:11;12.80;99.90
52859;DHT22;38721;53.098;6.596;2022-09-14T02:55:44;12.80;99.90
52859;DHT22;38721;53.098;6.596;2022-09-14T02:58:12;12.90;99.90
52859;DHT22;38721;53.098;6.596;2022-09-14T03:00:40;12.80;99.90
52859;DHT22;38721;53.098;6.596;2022-09-14T03:03:08;12.90;99.90
52859;DHT22;38721;53.098;6.596;2022-09-14T03:05:34;12.90;99.90
52859;DHT22;38721;53.098;6.596;2022-09-14T03:08:00;13.00;99.90
52859;DHT22;38721;53.098;6.596;2022-09-14T03:10:27;13.00;99.90
52859;DHT22;38721;53.098;6.596;2022-09-14T03:12:53;13.00;99.90
52859;DHT22;38721;53.098;6.596;2022-09-14T03:15:21;13.00;99.90
52859;DHT22;38721;53.098;6.596;2022-09-14T03:17:48;13.00;99.90
52859;DHT22;38721;53.098;6.596;2022-09-14T03:20:17;13.00;99.90
52859;DHT22;38721;53.098;6.596;2022-09-14T03:22:44;13.10;99.90
52859;DHT22;38721;53.098;6.596;2022-09-14T03:25:10;13.10;99.90
52859;DHT22;38721;53.098;6.596;2022-09-14T03:27:36;13.20;99.90
52859;DHT22;38721;53.098;6.596;2022-09-14T03:30:03;13.10;99.90
52859;DHT22;38721;53.098;6.596;2022-09-14T03:32:29;13.20;99.90
52859;DHT22;38721;53.098;6.596;2022-09-14T03:34:55;13.20;99.90
52859;DHT22;38721;53.098;6.596;2022-09-14T03:37:21;13.20;99.90
52859;DHT22;38721;53.098;6.596;2022-09-14T03:39:47;13.30;99.90
52859;DHT22;38721;53.098;6.596;2022-09-14T03:42:13;13.20;99.90
52859;DHT22;38721;53.098;6.596;2022-09-14T03:44:39;13.40;99.90
52859;DHT22;38721;53.098;6.596;2022-09-14T03:47:05;13.40;99.90
52859;DHT22;38721;53.098;6.596;2022-09-14T03:49:30;13.40;99.90
52859;DHT22;38721;53.098;6.596;2022-09-14T03:51:56;13.40;99.90
52859;DHT22;38721;53.098;6.596;2022-09-14T03:54:22;13.50;99.90
52859;DHT22;38721;53.098;6.596;2022-09-14T03:56:49;13.40;99.90
52859;DHT22;38721;53.098;6.596;2022-09-14T03:59:15;13.50;99.90
52859;DHT22;38721;53.098;6.596;2022-09-14T04:01:41;13.50;99.90
52859;DHT22;38721;53.098;6.596;2022-09-14T04:04:06;13.50;99.90
52859;DHT22;38721;53.098;6.596;2022-09-14T04:06:32;13.50;99.90
52859;DHT22;38721;53.098;6.596;2022-09-14T04:08:58;13.60;99.90
52859;DHT22;38721;53.098;6.596;2022-09-14T04:11:24;13.60;99.90
52859;DHT22;38721;53.098;6.596;2022-09-14T04:13:51;13.50;99.90
52859;DHT22;38721;53.098;6.596;2022-09-14T04:16:18;13.50;99.90
52859;DHT22;38721;53.098;6.596;2022-09-14T04:18:45;13.60;99.90
52859;DHT22;38721;53.098;6.596;2022-09-14T04:21:19;13.50;99.90
52859;DHT22;38721;53.098;6.596;2022-09-14T04:23:45;13.60;99.90
52859;DHT22;38721;53.098;6.596;2022-09-14T04:26:12;13.60;99.90
52859;DHT22;38721;53.098;6.596;2022-09-14T04:28:41;13.60;99.90
52859;DHT22;38721;53.098;6.596;2022-09-14T04:31:09;13.60;99.90
52859;DHT22;38721;53.098;6.596;2022-09-14T04:33:37;13.70;99.90
52859;DHT22;38721;53.098;6.596;2022-09-14T04:36:09;13.60;99.90
52859;DHT22;38721;53.098;6.596;2022-09-14T04:38:36;13.70;99.90
52859;DHT22;38721;53.098;6.596;2022-09-14T04:41:11;13.60;99.90
52859;DHT22;38721;53.098;6.596;2022-09-14T04:43:37;13.60;99.90
52859;DHT22;38721;53.098;6.596;2022-09-14T04:46:05;13.60;99.90
52859;DHT22;38721;53.098;6.596;2022-09-14T04:48:32;13.70;99.90
52859;DHT22;38721;53.098;6.596;2022-09-14T04:51:08;13.80;99.90
52859;DHT22;38721;53.098;6.596;2022-09-14T04:53:34;13.70;99.90
52859;DHT22;38721;53.098;6.596;2022-09-14T04:56:05;13.70;99.90
52859;DHT22;38721;53.098;6.596;2022-09-14T04:58:32;13.80;99.90
52859;DHT22;38721;53.098;6.596;2022-09-14T05:01:10;13.80;99.90
52859;DHT22;38721;53.098;6.596;2022-09-14T05:03:40;13.80;99.90
52859;DHT22;38721;53.098;6.596;2022-09-14T05:06:12;13.80;99.90
52859;DHT22;38721;53.098;6.596;2022-09-14T05:08:38;13.80;99.90
52859;DHT22;38721;53.098;6.596;2022-09-14T05:11:06;13.80;99.90
52859;DHT22;38721;53.098;6.596;2022-09-14T05:13:33;13.70;99.90
52859;DHT22;38721;53.098;6.596;2022-09-14T05:16:20;13.70;99.90
52859;DHT22;38721;53.098;6.596;2022-09-14T05:18:46;13.90;99.90
52859;DHT22;38721;53.098;6.596;2022-09-14T05:21:17;13.80;99.90
52859;DHT22;38721;53.098;6.596;2022-09-14T05:23:43;13.80;99.90
52859;DHT22;38721;53.098;6.596;2022-09-14T05:26:10;13.80;99.90
52859;DHT22;38721;53.098;6.596;2022-09-14T05:28:36;13.80;99.90
52859;DHT22;38721;53.098;6.596;2022-09-14T05:31:04;13.90;99.90
52859;DHT22;38721;53.098;6.596;2022-09-14T05:33:30;13.90;99.90
52859;DHT22;38721;53.098;6.596;2022-09-14T05:36:01;13.90;99.90
52859;DHT22;38721;53.098;6.596;2022-09-14T05:38:28;14.00;99.90
52859;DHT22;38721;53.098;6.596;2022-09-14T05:40:54;14.00;99.90
52859;DHT22;38721;53.098;6.596;2022-09-14T05:43:20;14.00;99.90
52859;DHT22;38721;53.098;6.596;2022-09-14T05:45:47;14.10;99.90
52859;DHT22;38721;53.098;6.596;2022-09-14T05:48:13;14.10;99.90
52859;DHT22;38721;53.098;6.596;2022-09-14T05:50:39;14.00;99.90
52859;DHT22;38721;53.098;6.596;2022-09-14T05:53:04;14.20;99.90
52859;DHT22;38721;53.098;6.596;2022-09-14T05:55:30;14.20;99.90
52859;DHT22;38721;53.098;6.596;2022-09-14T05:57:56;14.20;99.90
52859;DHT22;38721;53.098;6.596;2022-09-14T06:00:21;14.20;99.90
52859;DHT22;38721;53.098;6.596;2022-09-14T06:02:52;14.30;99.90
52859;DHT22;38721;53.098;6.596;2022-09-14T06:05:18;14.30;99.90
52859;DHT22;38721;53.098;6.596;2022-09-14T06:07:45;14.40;99.90
52859;DHT22;38721;53.098;6.596;2022-09-14T06:10:18;14.40;99.90
52859;DHT22;38721;53.098;6.596;2022-09-14T06:12:44;14.50;99.90
52859;DHT22;38721;53.098;6.596;2022-09-14T06:15:10;14.60;99.90
52859;DHT22;38721;53.098;6.596;2022-09-14T06:17:36;14.50;99.90
52859;DHT22;38721;53.098;6.596;2022-09-14T06:20:03;14.50;99.90
52859;DHT22;38721;53.098;6.596;2022-09-14T06:22:31;14.60;99.90
52859;DHT22;38721;53.098;6.596;2022-09-14T06:24:57;14.60;99.90
52859;DHT22;38721;53.098;6.596;2022-09-14T06:27:23;14.60;99.90
52859;DHT22;38721;53.098;6.596;2022-09-14T06:29:48;14.80;99.90
52859;DHT22;38721;53.098;6.596;2022-09-14T06:32:19;14.70;99.90
52859;DHT22;38721;53.098;6.596;2022-09-14T06:34:47;14.70;99.90
52859;DHT22;38721;53.098;6.596;2022-09-14T06:37:13;14.80;99.90
52859;DHT22;38721;53.098;6.596;2022-09-14T06:39:39;14.80;99.90
52859;DHT22;38721;53.098;6.596;2022-09-14T06:42:05;14.90;99.90
52859;DHT22;38721;53.098;6.596;2022-09-14T06:44:30;14.90;99.90
52859;DHT22;38721;53.098;6.596;2022-09-14T06:46:56;15.10;99.90
52859;DHT22;38721;53.098;6.596;2022-09-14T06:49:22;15.20;99.90
52859;DHT22;38721;53.098;6.596;2022-09-14T06:51:49;15.30;99.90
52859;DHT22;38721;53.098;6.596;2022-09-14T06:54:16;15.40;99.90
52859;DHT22;38721;53.098;6.596;2022-09-14T06:56:44;15.50;99.90
52859;DHT22;38721;53.098;6.596;2022-09-14T06:59:12;15.60;99.90
52859;DHT22;38721;53.098;6.596;2022-09-14T07:01:38;15.60;99.90
52859;DHT22;38721;53.098;6.596;2022-09-14T07:04:04;15.60;99.90
52859;DHT22;38721;53.098;6.596;2022-09-14T07:06:36;15.80;99.90
52859;DHT22;38721;53.098;6.596;2022-09-14T07:09:03;15.80;99.90
52859;DHT22;38721;53.098;6.596;2022-09-14T07:11:30;16.00;99.90
52859;DHT22;38721;53.098;6.596;2022-09-14T07:13:56;16.00;99.90
52859;DHT22;38721;53.098;6.596;2022-09-14T07:16:40;16.10;99.90
52859;DHT22;38721;53.098;6.596;2022-09-14T07:19:09;16.10;99.90
52859;DHT22;38721;53.098;6.596;2022-09-14T07:21:35;16.20;99.90
52859;DHT22;38721;53.098;6.596;2022-09-14T07:24:01;16.20;99.90
52859;DHT22;38721;53.098;6.596;2022-09-14T07:26:30;16.30;99.90
52859;DHT22;38721;53.098;6.596;2022-09-14T07:28:58;16.40;99.90
52859;DHT22;38721;53.098;6.596;2022-09-14T07:34:01;16.60;99.90
52859;DHT22;38721;53.098;6.596;2022-09-14T07:36:28;16.60;99.90
52859;DHT22;38721;53.098;6.596;2022-09-14T07:38:55;16.80;99.90
52859;DHT22;38721;53.098;6.596;2022-09-14T07:41:28;16.80;99.90
52859;DHT22;38721;53.098;6.596;2022-09-14T07:43:55;16.80;99.90
52859;DHT22;38721;53.098;6.596;2022-09-14T07:46:22;16.90;99.90
52859;DHT22;38721;53.098;6.596;2022-09-14T07:48:53;16.90;99.90
52859;DHT22;38721;53.098;6.596;2022-09-14T07:51:23;17.10;99.90
52859;DHT22;38721;53.098;6.596;2022-09-14T07:53:51;17.30;99.90
52859;DHT22;38721;53.098;6.596;2022-09-14T07:56:17;17.40;99.90
52859;DHT22;38721;53.098;6.596;2022-09-14T07:58:43;17.50;99.90
52859;DHT22;38721;53.098;6.596;2022-09-14T08:01:11;17.50;99.90
52859;DHT22;38721;53.098;6.596;2022-09-14T08:03:39;17.50;99.90
52859;DHT22;38721;53.098;6.596;2022-09-14T08:06:15;17.50;99.90
52859;DHT22;38721;53.098;6.596;2022-09-14T08:08:42;17.60;99.90
52859;DHT22;38721;53.098;6.596;2022-09-14T08:14:19;17.50;99.90
52859;DHT22;38721;53.098;6.596;2022-09-14T08:16:45;17.60;99.90
52859;DHT22;38721;53.098;6.596;2022-09-14T08:19:13;17.60;1.00
52859;DHT22;38721;53.098;6.596;2022-09-14T08:21:40;17.70;1.00
52859;DHT22;38721;53.098;6.596;2022-09-14T08:24:06;17.60;99.90
52859;DHT22;38721;53.098;6.596;2022-09-14T08:26:33;17.90;77.80
52859;DHT22;38721;53.098;6.596;2022-09-14T08:29:01;17.80;1.00
52859;DHT22;38721;53.098;6.596;2022-09-14T08:31:30;17.80;1.00
52859;DHT22;38721;53.098;6.596;2022-09-14T08:34:03;17.70;1.00
52859;DHT22;38721;53.098;6.596;2022-09-14T08:36:33;17.60;99.90
52859;DHT22;38721;53.098;6.596;2022-09-14T08:38:59;17.80;1.00
52859;DHT22;38721;53.098;6.596;2022-09-14T08:41:36;17.90;99.90
52859;DHT22;38721;53.098;6.596;2022-09-14T08:44:30;18.10;99.90
52859;DHT22;38721;53.098;6.596;2022-09-14T08:52:35;18.40;1.80
52859;DHT22;38721;53.098;6.596;2022-09-14T08:57:59;18.60;63.90
52859;DHT22;38721;53.098;6.596;2022-09-14T09:00:44;18.70;1.00
52859;DHT22;38721;53.098;6.596;2022-09-14T09:03:31;18.70;1.00
52859;DHT22;38721;53.098;6.596;2022-09-14T09:11:17;18.90;99.90
52859;DHT22;38721;53.098;6.596;2022-09-14T09:13:44;19.20;99.90
52859;DHT22;38721;53.098;6.596;2022-09-14T09:16:12;19.50;99.90
52859;DHT22;38721;53.098;6.596;2022-09-14T09:19:00;19.50;99.90
52859;DHT22;38721;53.098;6.596;2022-09-14T09:21:44;19.50;1.00
52859;DHT22;38721;53.098;6.596;2022-09-14T09:24:27;19.50;99.90
52859;DHT22;38721;53.098;6.596;2022-09-14T09:26:54;19.30;95.50
52859;DHT22;38721;53.098;6.596;2022-09-14T09:29:20;19.40;99.90
52859;DHT22;38721;53.098;6.596;2022-09-14T09:31:54;19.40;1.00
52859;DHT22;38721;53.098;6.596;2022-09-14T09:34:26;19.50;54.10
52859;DHT22;38721;53.098;6.596;2022-09-14T09:36:52;19.40;1.00
52859;DHT22;38721;53.098;6.596;2022-09-14T09:39:22;19.70;1.00
52859;DHT22;38721;53.098;6.596;2022-09-14T09:42:22;20.00;1.00
52859;DHT22;38721;53.098;6.596;2022-09-14T09:45:02;20.00;99.90
52859;DHT22;38721;53.098;6.596;2022-09-14T09:47:33;19.80;99.90
52859;DHT22;38721;53.098;6.596;2022-09-14T09:50:01;20.10;99.90
52859;DHT22;38721;53.098;6.596;2022-09-14T09:52:28;20.40;99.90
52859;DHT22;38721;53.098;6.596;2022-09-14T09:54:56;20.60;99.90
52859;DHT22;38721;53.098;6.596;2022-09-14T09:57:31;20.40;99.90
52859;DHT22;38721;53.098;6.596;2022-09-14T10:02:53;20.20;99.90
52859;DHT22;38721;53.098;6.596;2022-09-14T10:05:25;20.20;99.90
52859;DHT22;38721;53.098;6.596;2022-09-14T10:08:01;20.30;99.90
52859;DHT22;38721;53.098;6.596;2022-09-14T10:13:00;20.40;99.90
52859;DHT22;38721;53.098;6.596;2022-09-14T10:15:33;20.20;99.90
52859;DHT22;38721;53.098;6.596;2022-09-14T10:18:15;20.10;99.90
52859;DHT22;38721;53.098;6.596;2022-09-14T10:21:04;20.40;99.90
52859;DHT22;38721;53.098;6.596;2022-09-14T10:23:32;20.40;99.90
52859;DHT22;38721;53.098;6.596;2022-09-14T10:28:47;20.50;99.90
52859;DHT22;38721;53.098;6.596;2022-09-14T10:31:23;20.90;51.00
52859;DHT22;38721;53.098;6.596;2022-09-14T10:33:53;20.90;43.40
52859;DHT22;38721;53.098;6.596;2022-09-14T10:36:28;21.20;59.50
52859;DHT22;38721;53.098;6.596;2022-09-14T10:47:19;21.40;1.00
52859;DHT22;38721;53.098;6.596;2022-09-14T10:52:49;21.30;1.00
52859;DHT22;38721;53.098;6.596;2022-09-14T11:00:30;20.70;1.00
52859;DHT22;38721;53.098;6.596;2022-09-14T11:08:46;19.50;1.00
52859;DHT22;38721;53.098;6.596;2022-09-14T11:19:48;19.80;15.60
52859;DHT22;38721;53.098;6.596;2022-09-14T11:22:39;20.00;88.20
52859;DHT22;38721;53.098;6.596;2022-09-14T11:25:20;20.20;99.90
52859;DHT22;38721;53.098;6.596;2022-09-14T11:28:04;20.10;99.90
52859;DHT22;38721;53.098;6.596;2022-09-14T11:30:55;20.20;99.90
52859;DHT22;38721;53.098;6.596;2022-09-14T11:36:18;20.50;99.90
52859;DHT22;38721;53.098;6.596;2022-09-14T11:38:50;20.70;1.00
52859;DHT22;38721;53.098;6.596;2022-09-14T11:41:44;20.50;1.00
52859;DHT22;38721;53.098;6.596;2022-09-14T11:44:20;21.00;1.00
52859;DHT22;38721;53.098;6.596;2022-09-14T11:47:07;21.10;8.90
52859;DHT22;38721;53.098;6.596;2022-09-14T11:49:55;21.20;1.00
52859;DHT22;38721;53.098;6.596;2022-09-14T11:52:28;21.20;1.00
52859;DHT22;38721;53.098;6.596;2022-09-14T11:54:55;21.40;1.00
52859;DHT22;38721;53.098;6.596;2022-09-14T11:57:32;21.80;1.00
52859;DHT22;38721;53.098;6.596;2022-09-14T12:00:05;21.60;1.00
52859;DHT22;38721;53.098;6.596;2022-09-14T12:12:56;22.20;1.00
52859;DHT22;38721;53.098;6.596;2022-09-14T12:20:44;22.80;99.90
52859;DHT22;38721;53.098;6.596;2022-09-14T12:56:49;21.20;99.90
52859;DHT22;38721;53.098;6.596;2022-09-14T13:04:56;21.60;99.90
52859;DHT22;38721;53.098;6.596;2022-09-14T13:07:27;22.30;99.90
52859;DHT22;38721;53.098;6.596;2022-09-14T13:09:55;22.10;99.90
52859;DHT22;38721;53.098;6.596;2022-09-14T13:12:40;22.00;99.90
52859;DHT22;38721;53.098;6.596;2022-09-14T13:15:23;22.30;99.90
52859;DHT22;38721;53.098;6.596;2022-09-14T13:20:36;21.70;99.90
52859;DHT22;38721;53.098;6.596;2022-09-14T13:23:02;21.70;99.90
52859;DHT22;38721;53.098;6.596;2022-09-14T13:25:43;21.20;99.90
52859;DHT22;38721;53.098;6.596;2022-09-14T13:28:14;20.80;99.90
52859;DHT22;38721;53.098;6.596;2022-09-14T13:30:41;20.60;99.90
52859;DHT22;38721;53.098;6.596;2022-09-14T13:33:16;20.50;99.90
52859;DHT22;38721;53.098;6.596;2022-09-14T13:35:45;20.20;99.90
52859;DHT22;38721;53.098;6.596;2022-09-14T13:38:24;20.00;99.90
52859;DHT22;38721;53.098;6.596;2022-09-14T13:40:53;20.00;1.00
52859;DHT22;38721;53.098;6.596;2022-09-14T13:43:20;20.10;99.90
52859;DHT22;38721;53.098;6.596;2022-09-14T13:45:47;20.10;99.90
52859;DHT22;38721;53.098;6.596;2022-09-14T13:48:15;20.10;99.90
52859;DHT22;38721;53.098;6.596;2022-09-14T13:50:49;20.20;99.90
52859;DHT22;38721;53.098;6.596;2022-09-14T13:53:35;20.10;99.90
52859;DHT22;38721;53.098;6.596;2022-09-14T13:56:19;20.30;1.00
52859;DHT22;38721;53.098;6.596;2022-09-14T13:58:47;20.70;99.90
52859;DHT22;38721;53.098;6.596;2022-09-14T14:01:27;20.80;99.90
52859;DHT22;38721;53.098;6.596;2022-09-14T14:03:55;20.40;1.00
52859;DHT22;38721;53.098;6.596;2022-09-14T14:06:33;20.40;99.90
52859;DHT22;38721;53.098;6.596;2022-09-14T14:09:05;20.70;1.00
52859;DHT22;38721;53.098;6.596;2022-09-14T14:11:43;20.70;99.90
52859;DHT22;38721;53.098;6.596;2022-09-14T14:14:19;20.80;1.00
52859;DHT22;38721;53.098;6.596;2022-09-14T14:19:38;21.30;99.90
52859;DHT22;38721;53.098;6.596;2022-09-14T14:24:45;22.60;99.90
52859;DHT22;38721;53.098;6.596;2022-09-14T14:27:27;22.00;99.90
52859;DHT22;38721;53.098;6.596;2022-09-14T14:29:54;22.40;99.90
52859;DHT22;38721;53.098;6.596;2022-09-14T14:32:20;22.60;99.90
52859;DHT22;38721;53.098;6.596;2022-09-14T14:34:46;22.60;99.90
52859;DHT22;38721;53.098;6.596;2022-09-14T14:37:12;22.00;99.90
52859;DHT22;38721;53.098;6.596;2022-09-14T14:39:38;21.00;99.90
52859;DHT22;38721;53.098;6.596;2022-09-14T14:42:05;20.70;99.90
52859;DHT22;38721;53.098;6.596;2022-09-14T14:44:32;20.60;99.90
52859;DHT22;38721;53.098;6.596;2022-09-14T14:46:58;20.70;99.90
52859;DHT22;38721;53.098;6.596;2022-09-14T14:49:24;20.40;99.90
52859;DHT22;38721;53.098;6.596;2022-09-14T14:51:51;20.60;99.90
52859;DHT22;38721;53.098;6.596;2022-09-14T14:54:17;20.70;99.90
52859;DHT22;38721;53.098;6.596;2022-09-14T14:56:48;20.40;99.90
52859;DHT22;38721;53.098;6.596;2022-09-14T14:59:24;20.30;99.90
52859;DHT22;38721;53.098;6.596;2022-09-14T15:01:51;20.50;1.00
52859;DHT22;38721;53.098;6.596;2022-09-14T15:04:18;20.90;99.90
52859;DHT22;38721;53.098;6.596;2022-09-14T15:06:45;20.60;1.00
52859;DHT22;38721;53.098;6.596;2022-09-14T15:09:22;21.90;99.90
52859;DHT22;38721;53.098;6.596;2022-09-14T15:11:49;22.20;99.90
52859;DHT22;38721;53.098;6.596;2022-09-14T15:14:18;21.60;99.90
52859;DHT22;38721;53.098;6.596;2022-09-14T15:16:44;21.00;99.90
52859;DHT22;38721;53.098;6.596;2022-09-14T15:19:10;21.70;99.90
52859;DHT22;38721;53.098;6.596;2022-09-14T15:21:40;22.50;99.90
52859;DHT22;38721;53.098;6.596;2022-09-14T15:24:06;22.60;99.90
52859;DHT22;38721;53.098;6.596;2022-09-14T15:26:32;22.30;99.90
52859;DHT22;38721;53.098;6.596;2022-09-14T15:28:59;23.00;99.90
52859;DHT22;38721;53.098;6.596;2022-09-14T15:31:24;22.90;99.90
52859;DHT22;38721;53.098;6.596;2022-09-14T15:33:53;22.70;99.90
52859;DHT22;38721;53.098;6.596;2022-09-14T15:36:48;23.30;99.90
52859;DHT22;38721;53.098;6.596;2022-09-14T15:39:19;23.60;99.90
52859;DHT22;38721;53.098;6.596;2022-09-14T15:41:48;22.00;99.90
52859;DHT22;38721;53.098;6.596;2022-09-14T15:44:14;23.20;99.90
52859;DHT22;38721;53.098;6.596;2022-09-14T15:46:40;23.70;99.90
52859;DHT22;38721;53.098;6.596;2022-09-14T15:49:11;23.30;99.90
52859;DHT22;38721;53.098;6.596;2022-09-14T15:51:40;23.30;99.90
52859;DHT22;38721;53.098;6.596;2022-09-14T15:54:06;22.20;99.90
52859;DHT22;38721;53.098;6.596;2022-09-14T15:56:32;21.20;99.90
52859;DHT22;38721;53.098;6.596;2022-09-14T15:59:02;20.90;99.90
52859;DHT22;38721;53.098;6.596;2022-09-14T16:01:31;20.30;99.90
52859;DHT22;38721;53.098;6.596;2022-09-14T16:04:05;20.20;99.90
52859;DHT22;38721;53.098;6.596;2022-09-14T16:06:35;20.20;99.90
52859;DHT22;38721;53.098;6.596;2022-09-14T16:09:02;20.00;1.00
52859;DHT22;38721;53.098;6.596;2022-09-14T16:11:28;20.10;99.90
52859;DHT22;38721;53.098;6.596;2022-09-14T16:13:54;20.40;99.90
52859;DHT22;38721;53.098;6.596;2022-09-14T16:16:20;20.60;99.90
52859;DHT22;38721;53.098;6.596;2022-09-14T16:18:46;20.60;99.90
52859;DHT22;38721;53.098;6.596;2022-09-14T16:21:26;20.50;99.90
52859;DHT22;38721;53.098;6.596;2022-09-14T16:23:58;20.30;99.90
52859;DHT22;38721;53.098;6.596;2022-09-14T16:26:28;20.20;99.90
52859;DHT22;38721;53.098;6.596;2022-09-14T16:28:55;20.70;99.90
52859;DHT22;38721;53.098;6.596;2022-09-14T16:31:27;20.60;99.90
52859;DHT22;38721;53.098;6.596;2022-09-14T16:33:56;20.50;99.90
52859;DHT22;38721;53.098;6.596;2022-09-14T16:36:25;20.40;99.90
52859;DHT22;38721;53.098;6.596;2022-09-14T16:38:54;19.70;99.90
52859;DHT22;38721;53.098;6.596;2022-09-14T16:41:20;19.50;99.90
52859;DHT22;38721;53.098;6.596;2022-09-14T16:43:46;19.30;1.00
52859;DHT22;38721;53.098;6.596;2022-09-14T16:46:16;19.30;1.00
52859;DHT22;38721;53.098;6.596;2022-09-14T16:48:43;19.20;99.90
52859;DHT22;38721;53.098;6.596;2022-09-14T16:51:10;19.30;57.00
52859;DHT22;38721;53.098;6.596;2022-09-14T16:53:39;19.40;99.90
52859;DHT22;38721;53.098;6.596;2022-09-14T16:56:06;19.30;88.60
52859;DHT22;38721;53.098;6.596;2022-09-14T16:58:35;19.30;99.90
52859;DHT22;38721;53.098;6.596;2022-09-14T17:01:06;19.30;99.90
52859;DHT22;38721;53.098;6.596;2022-09-14T17:03:33;19.40;99.90
52859;DHT22;38721;53.098;6.596;2022-09-14T17:06:01;19.40;99.90
52859;DHT22;38721;53.098;6.596;2022-09-14T17:08:28;19.40;99.90
52859;DHT22;38721;53.098;6.596;2022-09-14T17:10:54;19.10;99.90
52859;DHT22;38721;53.098;6.596;2022-09-14T17:13:21;18.90;99.90
52859;DHT22;38721;53.098;6.596;2022-09-14T17:15:47;18.70;99.90
52859;DHT22;38721;53.098;6.596;2022-09-14T17:18:13;19.10;1.00
52859;DHT22;38721;53.098;6.596;2022-09-14T17:20:38;20.30;99.90
52859;DHT22;38721;53.098;6.596;2022-09-14T17:23:04;20.80;1.00
52859;DHT22;38721;53.098;6.596;2022-09-14T17:25:31;20.00;1.00
52859;DHT22;38721;53.098;6.596;2022-09-14T17:27:58;19.60;1.00
52859;DHT22;38721;53.098;6.596;2022-09-14T17:30:24;19.10;99.90
52859;DHT22;38721;53.098;6.596;2022-09-14T17:32:50;19.10;99.90
52859;DHT22;38721;53.098;6.596;2022-09-14T17:35:15;18.90;99.90
52859;DHT22;38721;53.098;6.596;2022-09-14T17:37:41;18.60;1.00
52859;DHT22;38721;53.098;6.596;2022-09-14T17:40:07;18.50;1.00
52859;DHT22;38721;53.098;6.596;2022-09-14T17:42:35;18.40;71.70
52859;DHT22;38721;53.098;6.596;2022-09-14T17:45:00;18.20;99.90
52859;DHT22;38721;53.098;6.596;2022-09-14T17:47:28;18.10;99.90
52859;DHT22;38721;53.098;6.596;2022-09-14T17:49:54;18.00;99.90
52859;DHT22;38721;53.098;6.596;2022-09-14T17:52:19;17.90;1.00
52859;DHT22;38721;53.098;6.596;2022-09-14T17:54:45;17.70;1.00
52859;DHT22;38721;53.098;6.596;2022-09-14T17:57:11;17.50;99.90
52859;DHT22;38721;53.098;6.596;2022-09-14T17:59:36;17.50;99.90
52859;DHT22;38721;53.098;6.596;2022-09-14T18:02:02;17.30;99.90
52859;DHT22;38721;53.098;6.596;2022-09-14T18:04:27;17.20;99.90
52859;DHT22;38721;53.098;6.596;2022-09-14T18:06:53;17.10;99.90
52859;DHT22;38721;53.098;6.596;2022-09-14T18:09:22;17.00;99.90
52859;DHT22;38721;53.098;6.596;2022-09-14T18:11:49;16.90;1.00
52859;DHT22;38721;53.098;6.596;2022-09-14T18:14:15;16.80;1.00
52859;DHT22;38721;53.098;6.596;2022-09-14T18:16:44;16.70;1.00
52859;DHT22;38721;53.098;6.596;2022-09-14T18:19:11;16.60;1.00
52859;DHT22;38721;53.098;6.596;2022-09-14T18:21:37;16.60;1.00